Main page
METAR-TAF:

METAR-TAF

Airports :

Passo Rolle, Italy

latitude: 46-18N, longitude: 011-47E, elevation: 2004 m

Current weather observation

The report was made 1 hour and 14 minutes ago, at 14:55 UTC
Wind 10 kt from the Southeast
Temperature 7°C
Humidity 87%
Pressure 1024 hPa
Visibility 10 km or more
Broken clouds at a height of 2000 ft

METAR: LIVR 261455Z 13010KT 9999 BKN020 07/05 Q1024 RMK BKN MON CIME INC VIS MIN 9999

Time: 18:09 (16:09 UTC)


TAF: missing

Weather observations and forecasts of more than 4000 airports (METAR and TAF reports).

The available stations are represented by yellow and red dots on the map.

Hover mouse over dot to see the name of the station.

Then click to see weather observations and forecasts.

To change the map : click on the green buttons with a black cross to zoom in, on the green button with a dash to zoom out, or on the green arrows for adjacent maps.


METAR-TAF: